sensor_id;sensor_type;location;lat;lon;timestamp;temperature;humidity
50758;DHT22;36732;47.980;11.652;2023-04-15T00:01:24;9.80;64.70
50758;DHT22;36732;47.980;11.652;2023-04-15T00:03:51;9.90;64.80
50758;DHT22;36732;47.980;11.652;2023-04-15T00:06:19;9.80;64.70
50758;DHT22;36732;47.980;11.652;2023-04-15T00:08:48;9.90;64.80
50758;DHT22;36732;47.980;11.652;2023-04-15T00:11:15;9.80;64.70
50758;DHT22;36732;47.980;11.652;2023-04-15T00:13:42;9.80;64.70
50758;DHT22;36732;47.980;11.652;2023-04-15T00:16:08;9.80;64.70
50758;DHT22;36732;47.980;11.652;2023-04-15T00:18:35;9.90;64.70
50758;DHT22;36732;47.980;11.652;2023-04-15T00:21:02;9.80;64.70
50758;DHT22;36732;47.980;11.652;2023-04-15T00:23:28;9.80;64.70
50758;DHT22;36732;47.980;11.652;2023-04-15T00:25:55;9.80;64.70
50758;DHT22;36732;47.980;11.652;2023-04-15T00:28:20;9.80;64.70
50758;DHT22;36732;47.980;11.652;2023-04-15T00:30:46;9.80;64.70
50758;DHT22;36732;47.980;11.652;2023-04-15T00:33:12;9.80;64.70
50758;DHT22;36732;47.980;11.652;2023-04-15T00:35:39;9.80;64.70
50758;DHT22;36732;47.980;11.652;2023-04-15T00:38:05;9.80;64.70
50758;DHT22;36732;47.980;11.652;2023-04-15T00:40:32;9.80;64.70
50758;DHT22;36732;47.980;11.652;2023-04-15T00:42:58;9.80;64.70
50758;DHT22;36732;47.980;11.652;2023-04-15T00:45:25;9.80;64.70
50758;DHT22;36732;47.980;11.652;2023-04-15T00:47:52;9.80;64.70
50758;DHT22;36732;47.980;11.652;2023-04-15T00:50:18;9.80;64.60
50758;DHT22;36732;47.980;11.652;2023-04-15T00:52:43;9.80;64.50
50758;DHT22;36732;47.980;11.652;2023-04-15T00:55:09;9.80;64.60
50758;DHT22;36732;47.980;11.652;2023-04-15T00:57:36;9.80;64.60
50758;DHT22;36732;47.980;11.652;2023-04-15T01:00:03;9.80;64.70
50758;DHT22;36732;47.980;11.652;2023-04-15T01:02:30;9.80;64.60
50758;DHT22;36732;47.980;11.652;2023-04-15T01:04:56;9.80;64.60
50758;DHT22;36732;47.980;11.652;2023-04-15T01:07:22;9.80;64.70
50758;DHT22;36732;47.980;11.652;2023-04-15T01:09:48;9.80;64.60
50758;DHT22;36732;47.980;11.652;2023-04-15T01:12:15;9.80;64.70
50758;DHT22;36732;47.980;11.652;2023-04-15T01:14:41;9.70;64.50
50758;DHT22;36732;47.980;11.652;2023-04-15T01:17:07;9.70;64.50
50758;DHT22;36732;47.980;11.652;2023-04-15T01:19:33;9.80;64.70
50758;DHT22;36732;47.980;11.652;2023-04-15T01:22:02;9.80;64.60
50758;DHT22;36732;47.980;11.652;2023-04-15T01:24:29;9.70;64.60
50758;DHT22;36732;47.980;11.652;2023-04-15T01:26:56;9.70;64.60
50758;DHT22;36732;47.980;11.652;2023-04-15T01:29:22;9.70;64.60
50758;DHT22;36732;47.980;11.652;2023-04-15T01:31:52;9.80;64.60
50758;DHT22;36732;47.980;11.652;2023-04-15T01:34:19;9.70;64.60
50758;DHT22;36732;47.980;11.652;2023-04-15T01:36:46;9.70;64.50
50758;DHT22;36732;47.980;11.652;2023-04-15T01:39:11;9.70;64.50
50758;DHT22;36732;47.980;11.652;2023-04-15T01:41:37;9.70;64.50
50758;DHT22;36732;47.980;11.652;2023-04-15T01:44:04;9.70;64.50
50758;DHT22;36732;47.980;11.652;2023-04-15T01:46:31;9.70;64.50
50758;DHT22;36732;47.980;11.652;2023-04-15T01:48:57;9.70;64.50
50758;DHT22;36732;47.980;11.652;2023-04-15T01:51:22;9.70;64.50
50758;DHT22;36732;47.980;11.652;2023-04-15T01:53:48;9.70;64.50
50758;DHT22;36732;47.980;11.652;2023-04-15T01:56:14;9.70;64.50
50758;DHT22;36732;47.980;11.652;2023-04-15T01:58:40;9.70;64.50
50758;DHT22;36732;47.980;11.652;2023-04-15T02:01:06;9.70;64.50
50758;DHT22;36732;47.980;11.652;2023-04-15T02:03:31;9.70;64.50
50758;DHT22;36732;47.980;11.652;2023-04-15T02:05:57;9.70;64.60
50758;DHT22;36732;47.980;11.652;2023-04-15T02:08:23;9.70;64.50
50758;DHT22;36732;47.980;11.652;2023-04-15T02:10:49;9.70;64.50
50758;DHT22;36732;47.980;11.652;2023-04-15T02:13:15;9.70;64.50
50758;DHT22;36732;47.980;11.652;2023-04-15T02:15:46;9.70;64.50
50758;DHT22;36732;47.980;11.652;2023-04-15T02:18:15;9.70;64.60
50758;DHT22;36732;47.980;11.652;2023-04-15T02:20:41;9.70;64.60
50758;DHT22;36732;47.980;11.652;2023-04-15T02:23:08;9.70;64.60
50758;DHT22;36732;47.980;11.652;2023-04-15T02:25:34;9.70;64.60
50758;DHT22;36732;47.980;11.652;2023-04-15T02:27:59;9.70;64.60
50758;DHT22;36732;47.980;11.652;2023-04-15T02:30:25;9.70;64.60
50758;DHT22;36732;47.980;11.652;2023-04-15T02:32:51;9.70;65.30
50758;DHT22;36732;47.980;11.652;2023-04-15T02:35:17;9.70;64.70
50758;DHT22;36732;47.980;11.652;2023-04-15T02:37:45;9.70;64.60
50758;DHT22;36732;47.980;11.652;2023-04-15T02:40:12;9.70;64.60
50758;DHT22;36732;47.980;11.652;2023-04-15T02:42:38;9.70;64.60
50758;DHT22;36732;47.980;11.652;2023-04-15T02:45:05;9.70;64.60
50758;DHT22;36732;47.980;11.652;2023-04-15T02:47:32;9.70;64.60
50758;DHT22;36732;47.980;11.652;2023-04-15T02:49:58;9.70;64.50
50758;DHT22;36732;47.980;11.652;2023-04-15T02:52:26;9.60;64.50
50758;DHT22;36732;47.980;11.652;2023-04-15T02:54:52;9.70;64.50
50758;DHT22;36732;47.980;11.652;2023-04-15T02:57:21;9.60;64.40
50758;DHT22;36732;47.980;11.652;2023-04-15T02:59:47;9.70;65.10
50758;DHT22;36732;47.980;11.652;2023-04-15T03:02:13;9.60;64.40
50758;DHT22;36732;47.980;11.652;2023-04-15T03:04:38;9.70;64.40
50758;DHT22;36732;47.980;11.652;2023-04-15T03:07:04;9.60;64.30
50758;DHT22;36732;47.980;11.652;2023-04-15T03:09:30;9.60;64.30
50758;DHT22;36732;47.980;11.652;2023-04-15T03:11:56;9.60;64.30
50758;DHT22;36732;47.980;11.652;2023-04-15T03:14:22;9.70;64.30
50758;DHT22;36732;47.980;11.652;2023-04-15T03:16:47;9.70;64.40
50758;DHT22;36732;47.980;11.652;2023-04-15T03:19:14;9.70;64.30
50758;DHT22;36732;47.980;11.652;2023-04-15T03:21:40;9.70;64.30
50758;DHT22;36732;47.980;11.652;2023-04-15T03:24:06;9.60;64.10
50758;DHT22;36732;47.980;11.652;2023-04-15T03:26:32;9.60;64.20
50758;DHT22;36732;47.980;11.652;2023-04-15T03:28:57;9.60;64.20
50758;DHT22;36732;47.980;11.652;2023-04-15T03:31:23;9.60;64.20
50758;DHT22;36732;47.980;11.652;2023-04-15T03:33:49;9.60;64.20
50758;DHT22;36732;47.980;11.652;2023-04-15T03:36:15;9.60;64.20
50758;DHT22;36732;47.980;11.652;2023-04-15T03:38:41;9.60;64.20
50758;DHT22;36732;47.980;11.652;2023-04-15T03:41:07;9.60;64.30
50758;DHT22;36732;47.980;11.652;2023-04-15T03:43:33;9.60;64.20
50758;DHT22;36732;47.980;11.652;2023-04-15T03:46:00;9.60;64.20
50758;DHT22;36732;47.980;11.652;2023-04-15T03:48:26;9.60;64.30
50758;DHT22;36732;47.980;11.652;2023-04-15T03:50:51;9.60;64.30
50758;DHT22;36732;47.980;11.652;2023-04-15T03:53:17;9.60;64.30
50758;DHT22;36732;47.980;11.652;2023-04-15T03:55:43;9.60;64.30
50758;DHT22;36732;47.980;11.652;2023-04-15T03:58:09;9.60;64.30
50758;DHT22;36732;47.980;11.652;2023-04-15T04:00:37;9.60;64.30
50758;DHT22;36732;47.980;11.652;2023-04-15T04:03:06;9.60;64.30
50758;DHT22;36732;47.980;11.652;2023-04-15T04:05:32;9.60;64.30
50758;DHT22;36732;47.980;11.652;2023-04-15T04:07:58;9.60;64.30
50758;DHT22;36732;47.980;11.652;2023-04-15T04:10:23;9.60;64.30
50758;DHT22;36732;47.980;11.652;2023-04-15T04:12:49;9.60;64.30
50758;DHT22;36732;47.980;11.652;2023-04-15T04:15:15;9.60;64.40
50758;DHT22;36732;47.980;11.652;2023-04-15T04:17:41;9.60;64.30
50758;DHT22;36732;47.980;11.652;2023-04-15T04:20:07;9.60;64.30
50758;DHT22;36732;47.980;11.652;2023-04-15T04:22:39;9.60;64.30
50758;DHT22;36732;47.980;11.652;2023-04-15T04:25:06;9.60;64.40
50758;DHT22;36732;47.980;11.652;2023-04-15T04:27:35;9.60;64.20
50758;DHT22;36732;47.980;11.652;2023-04-15T04:30:01;9.60;64.20
50758;DHT22;36732;47.980;11.652;2023-04-15T04:32:27;9.60;64.30
50758;DHT22;36732;47.980;11.652;2023-04-15T04:34:52;9.60;64.30
50758;DHT22;36732;47.980;11.652;2023-04-15T04:37:18;9.60;64.20
50758;DHT22;36732;47.980;11.652;2023-04-15T04:39:44;9.60;64.30
50758;DHT22;36732;47.980;11.652;2023-04-15T04:42:09;9.50;64.30
50758;DHT22;36732;47.980;11.652;2023-04-15T04:44:35;9.60;64.30
50758;DHT22;36732;47.980;11.652;2023-04-15T04:47:01;9.50;64.30
50758;DHT22;36732;47.980;11.652;2023-04-15T04:49:27;9.60;64.30
50758;DHT22;36732;47.980;11.652;2023-04-15T04:51:53;9.60;64.30
50758;DHT22;36732;47.980;11.652;2023-04-15T04:54:18;9.50;64.30
50758;DHT22;36732;47.980;11.652;2023-04-15T04:56:45;9.50;64.30
50758;DHT22;36732;47.980;11.652;2023-04-15T04:59:11;9.60;64.40
50758;DHT22;36732;47.980;11.652;2023-04-15T05:01:37;9.60;64.30
50758;DHT22;36732;47.980;11.652;2023-04-15T05:04:03;9.60;64.30
50758;DHT22;36732;47.980;11.652;2023-04-15T05:06:29;9.50;64.30
50758;DHT22;36732;47.980;11.652;2023-04-15T05:08:55;9.50;64.20
50758;DHT22;36732;47.980;11.652;2023-04-15T05:11:21;9.50;64.30
50758;DHT22;36732;47.980;11.652;2023-04-15T05:13:46;9.50;64.30
50758;DHT22;36732;47.980;11.652;2023-04-15T05:16:12;9.50;64.30
50758;DHT22;36732;47.980;11.652;2023-04-15T05:18:38;9.50;64.30
50758;DHT22;36732;47.980;11.652;2023-04-15T05:21:04;9.50;64.30
50758;DHT22;36732;47.980;11.652;2023-04-15T05:23:29;9.50;64.30
50758;DHT22;36732;47.980;11.652;2023-04-15T05:25:55;9.50;64.20
50758;DHT22;36732;47.980;11.652;2023-04-15T05:28:21;9.50;64.30
50758;DHT22;36732;47.980;11.652;2023-04-15T05:30:46;9.60;64.30
50758;DHT22;36732;47.980;11.652;2023-04-15T05:33:12;9.60;64.30
50758;DHT22;36732;47.980;11.652;2023-04-15T05:35:38;9.50;64.30
50758;DHT22;36732;47.980;11.652;2023-04-15T05:38:03;9.60;64.30
50758;DHT22;36732;47.980;11.652;2023-04-15T05:40:29;9.50;64.30
50758;DHT22;36732;47.980;11.652;2023-04-15T05:42:55;9.60;64.40
50758;DHT22;36732;47.980;11.652;2023-04-15T05:45:21;9.50;64.30
50758;DHT22;36732;47.980;11.652;2023-04-15T05:47:47;9.60;64.30
50758;DHT22;36732;47.980;11.652;2023-04-15T05:50:15;9.50;64.20
50758;DHT22;36732;47.980;11.652;2023-04-15T05:52:41;9.50;64.30
50758;DHT22;36732;47.980;11.652;2023-04-15T05:55:07;9.60;64.30
50758;DHT22;36732;47.980;11.652;2023-04-15T05:57:32;9.50;64.20
50758;DHT22;36732;47.980;11.652;2023-04-15T05:59:58;9.50;64.20
50758;DHT22;36732;47.980;11.652;2023-04-15T06:02:24;9.60;64.30
50758;DHT22;36732;47.980;11.652;2023-04-15T06:04:50;9.50;64.30
50758;DHT22;36732;47.980;11.652;2023-04-15T06:07:16;9.50;64.20
50758;DHT22;36732;47.980;11.652;2023-04-15T06:09:42;9.50;64.20
50758;DHT22;36732;47.980;11.652;2023-04-15T06:12:09;9.50;64.20
50758;DHT22;36732;47.980;11.652;2023-04-15T06:14:37;9.50;64.10
50758;DHT22;36732;47.980;11.652;2023-04-15T06:17:03;9.50;64.10
50758;DHT22;36732;47.980;11.652;2023-04-15T06:19:29;9.60;64.20
50758;DHT22;36732;47.980;11.652;2023-04-15T06:21:55;9.60;64.10
50758;DHT22;36732;47.980;11.652;2023-04-15T06:24:21;9.60;64.10
50758;DHT22;36732;47.980;11.652;2023-04-15T06:26:46;9.60;64.10
50758;DHT22;36732;47.980;11.652;2023-04-15T06:29:12;9.60;64.10
50758;DHT22;36732;47.980;11.652;2023-04-15T06:31:38;9.60;64.10
50758;DHT22;36732;47.980;11.652;2023-04-15T06:34:04;9.60;64.10
50758;DHT22;36732;47.980;11.652;2023-04-15T06:36:29;9.60;64.10
50758;DHT22;36732;47.980;11.652;2023-04-15T06:38:56;9.60;64.00
50758;DHT22;36732;47.980;11.652;2023-04-15T06:41:22;9.60;64.00
50758;DHT22;36732;47.980;11.652;2023-04-15T06:43:48;9.60;64.00
50758;DHT22;36732;47.980;11.652;2023-04-15T06:46:13;9.60;63.90
50758;DHT22;36732;47.980;11.652;2023-04-15T06:48:39;9.60;63.80
50758;DHT22;36732;47.980;11.652;2023-04-15T06:51:05;9.60;63.70
50758;DHT22;36732;47.980;11.652;2023-04-15T06:53:31;9.60;63.70
50758;DHT22;36732;47.980;11.652;2023-04-15T06:55:57;9.60;63.90
50758;DHT22;36732;47.980;11.652;2023-04-15T06:58:22;9.60;63.90
50758;DHT22;36732;47.980;11.652;2023-04-15T07:00:48;9.60;63.80
50758;DHT22;36732;47.980;11.652;2023-04-15T07:03:14;9.60;63.80
50758;DHT22;36732;47.980;11.652;2023-04-15T07:05:40;9.60;63.80
50758;DHT22;36732;47.980;11.652;2023-04-15T07:08:06;9.60;64.10
50758;DHT22;36732;47.980;11.652;2023-04-15T07:10:33;9.60;63.70
50758;DHT22;36732;47.980;11.652;2023-04-15T07:12:59;9.60;63.60
50758;DHT22;36732;47.980;11.652;2023-04-15T07:15:26;9.60;63.70
50758;DHT22;36732;47.980;11.652;2023-04-15T07:17:51;9.60;63.60
50758;DHT22;36732;47.980;11.652;2023-04-15T07:20:17;9.60;63.60
50758;DHT22;36732;47.980;11.652;2023-04-15T07:22:43;9.60;63.70
50758;DHT22;36732;47.980;11.652;2023-04-15T07:25:09;9.70;63.70
50758;DHT22;36732;47.980;11.652;2023-04-15T07:27:34;9.70;63.70
50758;DHT22;36732;47.980;11.652;2023-04-15T07:30:01;9.60;63.70
50758;DHT22;36732;47.980;11.652;2023-04-15T07:32:27;9.60;63.70
50758;DHT22;36732;47.980;11.652;2023-04-15T07:34:52;9.60;63.70
50758;DHT22;36732;47.980;11.652;2023-04-15T07:37:18;9.70;63.80
50758;DHT22;36732;47.980;11.652;2023-04-15T07:39:44;9.70;63.80
50758;DHT22;36732;47.980;11.652;2023-04-15T07:42:11;9.70;63.90
50758;DHT22;36732;47.980;11.652;2023-04-15T07:44:36;9.70;64.00
50758;DHT22;36732;47.980;11.652;2023-04-15T07:47:02;9.70;64.10
50758;DHT22;36732;47.980;11.652;2023-04-15T07:49:28;9.70;64.20
50758;DHT22;36732;47.980;11.652;2023-04-15T07:51:54;9.70;64.20
50758;DHT22;36732;47.980;11.652;2023-04-15T07:54:21;9.70;64.30
50758;DHT22;36732;47.980;11.652;2023-04-15T07:56:47;9.70;64.30
50758;DHT22;36732;47.980;11.652;2023-04-15T07:59:13;9.70;64.40
50758;DHT22;36732;47.980;11.652;2023-04-15T08:01:42;9.80;64.30
50758;DHT22;36732;47.980;11.652;2023-04-15T08:04:08;9.80;64.30
50758;DHT22;36732;47.980;11.652;2023-04-15T08:06:34;9.80;64.30
50758;DHT22;36732;47.980;11.652;2023-04-15T08:09:01;9.80;64.40
50758;DHT22;36732;47.980;11.652;2023-04-15T08:11:26;9.80;64.30
50758;DHT22;36732;47.980;11.652;2023-04-15T08:13:52;9.80;64.30
50758;DHT22;36732;47.980;11.652;2023-04-15T08:16:23;9.80;64.30
50758;DHT22;36732;47.980;11.652;2023-04-15T08:18:51;9.80;64.40
50758;DHT22;36732;47.980;11.652;2023-04-15T08:21:19;9.80;64.40
50758;DHT22;36732;47.980;11.652;2023-04-15T08:23:46;9.80;64.50
50758;DHT22;36732;47.980;11.652;2023-04-15T08:26:14;9.80;64.40
50758;DHT22;36732;47.980;11.652;2023-04-15T08:28:41;9.90;64.40
50758;DHT22;36732;47.980;11.652;2023-04-15T08:31:08;9.90;64.40
50758;DHT22;36732;47.980;11.652;2023-04-15T08:33:34;9.90;64.30
50758;DHT22;36732;47.980;11.652;2023-04-15T08:36:00;9.90;64.30
50758;DHT22;36732;47.980;11.652;2023-04-15T08:38:25;9.90;64.20
50758;DHT22;36732;47.980;11.652;2023-04-15T08:40:51;9.90;64.30
50758;DHT22;36732;47.980;11.652;2023-04-15T08:43:27;9.90;64.30
50758;DHT22;36732;47.980;11.652;2023-04-15T08:45:54;9.90;64.30
50758;DHT22;36732;47.980;11.652;2023-04-15T08:48:24;9.90;64.40
50758;DHT22;36732;47.980;11.652;2023-04-15T08:50:53;10.00;64.50
50758;DHT22;36732;47.980;11.652;2023-04-15T08:53:19;9.90;64.50
50758;DHT22;36732;47.980;11.652;2023-04-15T08:55:50;9.90;64.50
50758;DHT22;36732;47.980;11.652;2023-04-15T08:58:18;10.00;64.60
50758;DHT22;36732;47.980;11.652;2023-04-15T09:00:44;10.00;64.50
50758;DHT22;36732;47.980;11.652;2023-04-15T09:03:10;10.00;64.50
50758;DHT22;36732;47.980;11.652;2023-04-15T09:05:36;10.00;64.30
50758;DHT22;36732;47.980;11.652;2023-04-15T09:08:03;10.00;64.10
50758;DHT22;36732;47.980;11.652;2023-04-15T09:10:30;10.00;64.10
50758;DHT22;36732;47.980;11.652;2023-04-15T09:12:57;10.00;64.10
50758;DHT22;36732;47.980;11.652;2023-04-15T09:15:25;10.00;63.80
50758;DHT22;36732;47.980;11.652;2023-04-15T09:17:54;10.00;63.50
50758;DHT22;36732;47.980;11.652;2023-04-15T09:20:21;10.10;63.60
50758;DHT22;36732;47.980;11.652;2023-04-15T09:22:48;10.00;63.40
50758;DHT22;36732;47.980;11.652;2023-04-15T09:27:58;10.00;63.50
50758;DHT22;36732;47.980;11.652;2023-04-15T09:30:26;10.10;63.20
50758;DHT22;36732;47.980;11.652;2023-04-15T09:32:54;10.10;63.30
50758;DHT22;36732;47.980;11.652;2023-04-15T09:35:23;10.10;63.30
50758;DHT22;36732;47.980;11.652;2023-04-15T09:37:50;10.10;63.50
50758;DHT22;36732;47.980;11.652;2023-04-15T09:40:36;10.10;63.50
50758;DHT22;36732;47.980;11.652;2023-04-15T09:43:04;10.10;63.20
50758;DHT22;36732;47.980;11.652;2023-04-15T09:45:31;10.10;63.30
50758;DHT22;36732;47.980;11.652;2023-04-15T09:47:59;10.10;63.20
50758;DHT22;36732;47.980;11.652;2023-04-15T09:50:41;10.10;63.00
50758;DHT22;36732;47.980;11.652;2023-04-15T09:53:14;10.20;63.20
50758;DHT22;36732;47.980;11.652;2023-04-15T09:55:44;10.20;63.60
50758;DHT22;36732;47.980;11.652;2023-04-15T09:58:28;10.20;63.60
50758;DHT22;36732;47.980;11.652;2023-04-15T10:00:55;10.20;63.50
50758;DHT22;36732;47.980;11.652;2023-04-15T10:03:24;10.20;63.50
50758;DHT22;36732;47.980;11.652;2023-04-15T10:05:52;10.20;63.30
50758;DHT22;36732;47.980;11.652;2023-04-15T10:08:21;10.30;63.20
50758;DHT22;36732;47.980;11.652;2023-04-15T10:10:49;10.20;63.10
50758;DHT22;36732;47.980;11.652;2023-04-15T10:13:18;10.30;63.00
50758;DHT22;36732;47.980;11.652;2023-04-15T10:15:58;10.30;63.00
50758;DHT22;36732;47.980;11.652;2023-04-15T10:18:27;10.30;63.00
50758;DHT22;36732;47.980;11.652;2023-04-15T10:20:53;10.20;63.00
50758;DHT22;36732;47.980;11.652;2023-04-15T10:23:23;10.30;62.90
50758;DHT22;36732;47.980;11.652;2023-04-15T10:25:51;10.30;62.80
50758;DHT22;36732;47.980;11.652;2023-04-15T10:28:21;10.30;62.60
50758;DHT22;36732;47.980;11.652;2023-04-15T10:30:50;10.30;62.60
50758;DHT22;36732;47.980;11.652;2023-04-15T10:33:20;10.30;62.50
50758;DHT22;36732;47.980;11.652;2023-04-15T10:35:48;10.30;62.40
50758;DHT22;36732;47.980;11.652;2023-04-15T10:38:35;10.30;62.50
50758;DHT22;36732;47.980;11.652;2023-04-15T10:41:24;10.30;62.20
50758;DHT22;36732;47.980;11.652;2023-04-15T10:43:54;10.30;62.20
50758;DHT22;36732;47.980;11.652;2023-04-15T10:46:39;10.30;62.40
50758;DHT22;36732;47.980;11.652;2023-04-15T10:49:08;10.30;62.30
50758;DHT22;36732;47.980;11.652;2023-04-15T10:51:41;10.30;62.10
50758;DHT22;36732;47.980;11.652;2023-04-15T10:59:31;10.30;61.90
50758;DHT22;36732;47.980;11.652;2023-04-15T11:02:02;10.30;62.10
50758;DHT22;36732;47.980;11.652;2023-04-15T11:07:47;10.40;61.80
50758;DHT22;36732;47.980;11.652;2023-04-15T11:12:58;10.40;62.00
50758;DHT22;36732;47.980;11.652;2023-04-15T11:18:21;10.40;61.70
50758;DHT22;36732;47.980;11.652;2023-04-15T11:20:53;10.40;61.60
50758;DHT22;36732;47.980;11.652;2023-04-15T11:23:41;10.40;61.30
50758;DHT22;36732;47.980;11.652;2023-04-15T11:26:13;10.40;61.00
50758;DHT22;36732;47.980;11.652;2023-04-15T11:28:41;10.40;61.00
50758;DHT22;36732;47.980;11.652;2023-04-15T11:31:15;10.40;60.90
50758;DHT22;36732;47.980;11.652;2023-04-15T11:33:56;10.40;60.90
50758;DHT22;36732;47.980;11.652;2023-04-15T11:36:28;10.40;60.20
50758;DHT22;36732;47.980;11.652;2023-04-15T11:38:56;10.40;61.30
50758;DHT22;36732;47.980;11.652;2023-04-15T11:41:22;10.50;60.40
50758;DHT22;36732;47.980;11.652;2023-04-15T11:43:49;10.40;60.20
50758;DHT22;36732;47.980;11.652;2023-04-15T11:46:15;10.50;59.80
50758;DHT22;36732;47.980;11.652;2023-04-15T11:48:43;10.50;59.50
50758;DHT22;36732;47.980;11.652;2023-04-15T11:51:11;10.50;59.60
50758;DHT22;36732;47.980;11.652;2023-04-15T11:53:48;10.50;59.30
50758;DHT22;36732;47.980;11.652;2023-04-15T11:56:19;10.50;58.50
50758;DHT22;36732;47.980;11.652;2023-04-15T11:58:47;10.50;58.90
50758;DHT22;36732;47.980;11.652;2023-04-15T12:01:15;10.50;59.20
50758;DHT22;36732;47.980;11.652;2023-04-15T12:03:46;10.50;59.20
50758;DHT22;36732;47.980;11.652;2023-04-15T12:06:18;10.50;59.20
50758;DHT22;36732;47.980;11.652;2023-04-15T12:11:49;10.50;59.00
50758;DHT22;36732;47.980;11.652;2023-04-15T12:14:28;10.50;58.80
50758;DHT22;36732;47.980;11.652;2023-04-15T12:17:00;10.50;58.80
50758;DHT22;36732;47.980;11.652;2023-04-15T12:19:40;10.50;59.00
50758;DHT22;36732;47.980;11.652;2023-04-15T12:22:13;10.50;58.90
50758;DHT22;36732;47.980;11.652;2023-04-15T12:24:42;10.60;58.90
50758;DHT22;36732;47.980;11.652;2023-04-15T12:27:12;10.60;59.20
50758;DHT22;36732;47.980;11.652;2023-04-15T12:29:40;10.60;58.80
50758;DHT22;36732;47.980;11.652;2023-04-15T12:32:12;10.60;59.20
50758;DHT22;36732;47.980;11.652;2023-04-15T12:34:44;10.50;59.10
50758;DHT22;36732;47.980;11.652;2023-04-15T12:37:16;10.60;59.20
50758;DHT22;36732;47.980;11.652;2023-04-15T12:39:43;10.60;59.40
50758;DHT22;36732;47.980;11.652;2023-04-15T12:42:10;10.60;59.50
50758;DHT22;36732;47.980;11.652;2023-04-15T12:44:37;10.60;59.80
50758;DHT22;36732;47.980;11.652;2023-04-15T12:47:04;10.60;60.00
50758;DHT22;36732;47.980;11.652;2023-04-15T12:49:30;10.60;60.40
50758;DHT22;36732;47.980;11.652;2023-04-15T12:51:58;10.60;60.50
50758;DHT22;36732;47.980;11.652;2023-04-15T12:54:25;10.60;61.00
50758;DHT22;36732;47.980;11.652;2023-04-15T12:56:52;10.60;61.00
50758;DHT22;36732;47.980;11.652;2023-04-15T12:59:19;10.60;60.90
50758;DHT22;36732;47.980;11.652;2023-04-15T13:01:46;10.60;61.00
50758;DHT22;36732;47.980;11.652;2023-04-15T13:04:13;10.50;61.20
50758;DHT22;36732;47.980;11.652;2023-04-15T13:06:39;10.60;61.40
50758;DHT22;36732;47.980;11.652;2023-04-15T13:09:04;10.50;61.30
50758;DHT22;36732;47.980;11.652;2023-04-15T13:11:31;10.60;61.50
50758;DHT22;36732;47.980;11.652;2023-04-15T13:13:59;10.60;61.50
50758;DHT22;36732;47.980;11.652;2023-04-15T13:16:25;10.60;61.60
50758;DHT22;36732;47.980;11.652;2023-04-15T13:18:51;10.60;61.70
50758;DHT22;36732;47.980;11.652;2023-04-15T13:21:18;10.60;61.70
50758;DHT22;36732;47.980;11.652;2023-04-15T13:23:44;10.60;61.80
50758;DHT22;36732;47.980;11.652;2023-04-15T13:26:10;10.60;61.90
50758;DHT22;36732;47.980;11.652;2023-04-15T13:28:35;10.60;62.00
50758;DHT22;36732;47.980;11.652;2023-04-15T13:31:01;10.60;62.20
50758;DHT22;36732;47.980;11.652;2023-04-15T13:33:27;10.70;62.20
50758;DHT22;36732;47.980;11.652;2023-04-15T13:35:53;10.70;62.20
50758;DHT22;36732;47.980;11.652;2023-04-15T13:38:19;10.70;62.20
50758;DHT22;36732;47.980;11.652;2023-04-15T13:40:44;10.70;62.20
50758;DHT22;36732;47.980;11.652;2023-04-15T13:43:10;10.70;62.30
50758;DHT22;36732;47.980;11.652;2023-04-15T13:45:36;10.70;62.30
50758;DHT22;36732;47.980;11.652;2023-04-15T13:48:02;10.70;62.20
50758;DHT22;36732;47.980;11.652;2023-04-15T13:50:28;10.70;62.20
50758;DHT22;36732;47.980;11.652;2023-04-15T13:52:54;10.70;62.20
50758;DHT22;36732;47.980;11.652;2023-04-15T13:55:19;10.70;62.20
50758;DHT22;36732;47.980;11.652;2023-04-15T13:57:45;10.70;62.20
50758;DHT22;36732;47.980;11.652;2023-04-15T14:00:11;10.70;62.20
50758;DHT22;36732;47.980;11.652;2023-04-15T14:02:39;10.80;62.30
50758;DHT22;36732;47.980;11.652;2023-04-15T14:05:06;10.80;62.20
50758;DHT22;36732;47.980;11.652;2023-04-15T14:07:32;10.70;62.10
50758;DHT22;36732;47.980;11.652;2023-04-15T14:09:59;10.80;62.30
50758;DHT22;36732;47.980;11.652;2023-04-15T14:12:25;10.80;62.20
50758;DHT22;36732;47.980;11.652;2023-04-15T14:14:50;10.80;62.00
50758;DHT22;36732;47.980;11.652;2023-04-15T14:17:16;10.80;61.90
50758;DHT22;36732;47.980;11.652;2023-04-15T14:19:42;10.80;62.00
50758;DHT22;36732;47.980;11.652;2023-04-15T14:22:08;10.80;62.10
50758;DHT22;36732;47.980;11.652;2023-04-15T14:24:33;10.80;62.00
50758;DHT22;36732;47.980;11.652;2023-04-15T14:26:59;10.80;61.80
50758;DHT22;36732;47.980;11.652;2023-04-15T14:29:26;10.80;61.20
50758;DHT22;36732;47.980;11.652;2023-04-15T14:31:52;10.70;61.40
50758;DHT22;36732;47.980;11.652;2023-04-15T14:34:18;10.70;60.70
50758;DHT22;36732;47.980;11.652;2023-04-15T14:36:43;10.80;60.60
50758;DHT22;36732;47.980;11.652;2023-04-15T14:39:10;10.70;60.20
50758;DHT22;36732;47.980;11.652;2023-04-15T14:41:36;10.80;60.10
50758;DHT22;36732;47.980;11.652;2023-04-15T14:44:02;10.80;60.10
50758;DHT22;36732;47.980;11.652;2023-04-15T14:46:27;10.80;59.90
50758;DHT22;36732;47.980;11.652;2023-04-15T14:48:53;10.80;60.00
50758;DHT22;36732;47.980;11.652;2023-04-15T14:51:19;10.70;59.70
50758;DHT22;36732;47.980;11.652;2023-04-15T14:53:45;10.70;59.50
50758;DHT22;36732;47.980;11.652;2023-04-15T14:56:10;10.70;59.40
50758;DHT22;36732;47.980;11.652;2023-04-15T14:58:36;10.70;59.70
50758;DHT22;36732;47.980;11.652;2023-04-15T15:01:03;10.70;59.30
50758;DHT22;36732;47.980;11.652;2023-04-15T15:03:29;10.70;59.10
50758;DHT22;36732;47.980;11.652;2023-04-15T15:05:55;10.70;59.40
50758;DHT22;36732;47.980;11.652;2023-04-15T15:08:22;10.70;59.30
50758;DHT22;36732;47.980;11.652;2023-04-15T15:10:47;10.80;59.50
50758;DHT22;36732;47.980;11.652;2023-04-15T15:13:13;10.80;59.50
50758;DHT22;36732;47.980;11.652;2023-04-15T15:15:39;10.80;59.20
50758;DHT22;36732;47.980;11.652;2023-04-15T15:18:05;10.70;59.10
50758;DHT22;36732;47.980;11.652;2023-04-15T15:20:31;10.70;59.10
50758;DHT22;36732;47.980;11.652;2023-04-15T15:22:57;10.80;59.10
50758;DHT22;36732;47.980;11.652;2023-04-15T15:25:23;10.80;59.30
50758;DHT22;36732;47.980;11.652;2023-04-15T15:27:49;10.80;59.00
50758;DHT22;36732;47.980;11.652;2023-04-15T15:30:15;10.80;59.10
50758;DHT22;36732;47.980;11.652;2023-04-15T15:32:41;10.80;59.30
50758;DHT22;36732;47.980;11.652;2023-04-15T15:35:08;10.80;58.90
50758;DHT22;36732;47.980;11.652;2023-04-15T15:37:34;10.80;58.60
50758;DHT22;36732;47.980;11.652;2023-04-15T15:40:04;10.80;58.30
50758;DHT22;36732;47.980;11.652;2023-04-15T15:42:31;10.80;58.30
50758;DHT22;36732;47.980;11.652;2023-04-15T15:44:57;10.80;58.00